Time;durP1;ratioP1;P1;durP2;ratioP2;P2;SDS_P1;SDS_P2;PMS_P1;PMS_P2;Temp;Humidity;BMP_temperature;BMP_pressure;BME280_temperature;BME280_humidity;BME280_pressure;Samples;Min_cycle;Max_cycle;Signal;HPM_P1;HPM_P2
2022/07/07 00:01:41;;;;;;;18.55;3.13;;;;;;;;;;4983843;28;20050;-60
2022/07/07 00:04:09;;;;;;;19.00;3.17;;;;;;;;;;4986901;28;20087;-60
2022/07/07 00:06:36;;;;;;;16.35;3.70;;;;;;;;;;4989279;28;20065;-60
2022/07/07 00:09:04;;;;;;;16.70;3.97;;;;;;;;;;4984728;28;20544;-60
2022/07/07 00:11:33;;;;;;;11.93;3.40;;;;;;;;;;4984966;28;20062;-60
2022/07/07 00:14:01;;;;;;;12.10;3.40;;;;;;;;;;4979185;28;20058;-60
2022/07/07 00:16:28;;;;;;;24.63;4.28;;;;;;;;;;4989760;28;20047;-62
2022/07/07 00:18:55;;;;;;;14.02;4.03;;;;;;;;;;4984719;28;20082;-62
2022/07/07 00:21:23;;;;;;;17.00;4.18;;;;;;;;;;4984590;28;20156;-62
2022/07/07 00:23:50;;;;;;;16.08;3.85;;;;;;;;;;4982745;28;20050;-62
2022/07/07 00:26:17;;;;;;;16.27;4.00;;;;;;;;;;4985177;28;20042;-62
2022/07/07 00:28:45;;;;;;;14.13;3.95;;;;;;;;;;4985770;28;20050;-62
2022/07/07 00:31:13;;;;;;;19.73;4.15;;;;;;;;;;4981086;28;20555;-62
2022/07/07 00:33:40;;;;;;;19.48;4.25;;;;;;;;;;4982608;28;20496;-63
2022/07/07 00:36:07;;;;;;;16.23;3.95;;;;;;;;;;4986297;28;20449;-62
2022/07/07 00:38:35;;;;;;;14.57;4.18;;;;;;;;;;4981777;28;20050;-63
2022/07/07 00:41:03;;;;;;;25.45;4.63;;;;;;;;;;4984747;28;20061;-62
2022/07/07 00:43:36;;;;;;;15.18;4.15;;;;;;;;;;4983617;28;20069;-63
2022/07/07 00:46:05;;;;;;;24.73;4.30;;;;;;;;;;4983833;28;20045;-63
2022/07/07 00:48:34;;;;;;;15.30;4.00;;;;;;;;;;4977820;28;20665;-62
2022/07/07 00:51:01;;;;;;;24.98;4.45;;;;;;;;;;4982250;28;20105;-62
2022/07/07 00:53:28;;;;;;;19.90;4.43;;;;;;;;;;4984777;28;20058;-62
2022/07/07 00:55:56;;;;;;;18.50;4.32;;;;;;;;;;4986799;28;20112;-63
2022/07/07 00:58:23;;;;;;;21.63;4.28;;;;;;;;;;4980605;28;20054;-63
2022/07/07 01:00:50;;;;;;;20.00;3.75;;;;;;;;;;4986908;28;20113;-62
2022/07/07 01:03:19;;;;;;;21.85;3.88;;;;;;;;;;4987977;28;20718;-62
2022/07/07 01:05:47;;;;;;;19.10;3.63;;;;;;;;;;4969822;28;20038;-62
2022/07/07 01:08:15;;;;;;;23.15;4.57;;;;;;;;;;4979398;28;20595;-62
2022/07/07 01:10:43;;;;;;;27.40;4.85;;;;;;;;;;4985964;28;20100;-62
2022/07/07 01:13:10;;;;;;;19.05;3.83;;;;;;;;;;4981859;28;20132;-62
2022/07/07 01:15:37;;;;;;;32.22;4.80;;;;;;;;;;4982818;28;20058;-62
2022/07/07 01:18:06;;;;;;;20.75;3.90;;;;;;;;;;4976356;28;21075;-63
2022/07/07 01:20:35;;;;;;;22.48;4.18;;;;;;;;;;4982611;28;20064;-62
2022/07/07 01:23:03;;;;;;;21.13;3.25;;;;;;;;;;4982641;28;20046;-62
2022/07/07 01:25:31;;;;;;;19.85;3.03;;;;;;;;;;4983658;28;20096;-63
2022/07/07 01:27:58;;;;;;;13.80;2.35;;;;;;;;;;4970975;28;20445;-62
2022/07/07 01:30:26;;;;;;;10.93;2.10;;;;;;;;;;4983808;28;20058;-62
2022/07/07 01:32:53;;;;;;;20.40;2.72;;;;;;;;;;4980911;28;20051;-62
2022/07/07 01:35:20;;;;;;;12.88;2.30;;;;;;;;;;4978086;28;20054;-63
2022/07/07 01:37:47;;;;;;;15.63;2.33;;;;;;;;;;4983948;28;20148;-63
2022/07/07 01:40:16;;;;;;;11.68;2.42;;;;;;;;;;4981943;28;20046;-63
2022/07/07 01:42:43;;;;;;;10.88;2.20;;;;;;;;;;4979673;28;20493;-62
2022/07/07 01:45:11;;;;;;;12.55;2.40;;;;;;;;;;4983402;28;20061;-63
2022/07/07 01:47:38;;;;;;;12.05;2.30;;;;;;;;;;4985157;28;20058;-62
2022/07/07 01:50:06;;;;;;;15.02;2.75;;;;;;;;;;4984409;28;20054;-63
2022/07/07 01:52:33;;;;;;;16.65;2.47;;;;;;;;;;4966728;28;20050;-62
2022/07/07 01:55:00;;;;;;;13.32;2.60;;;;;;;;;;4980454;28;20062;-63
2022/07/07 01:57:29;;;;;;;18.75;3.20;;;;;;;;;;4982004;28;20137;-63
2022/07/07 01:59:56;;;;;;;24.83;3.40;;;;;;;;;;4983009;28;20065;-62
2022/07/07 02:02:23;;;;;;;18.80;3.15;;;;;;;;;;4976057;28;20054;-62
2022/07/07 02:04:50;;;;;;;21.50;3.78;;;;;;;;;;4979079;28;20112;-63
2022/07/07 02:07:18;;;;;;;22.77;3.50;;;;;;;;;;4982617;28;20054;-62
2022/07/07 02:09:45;;;;;;;20.98;3.50;;;;;;;;;;4981901;28;20290;-63
2022/07/07 02:12:12;;;;;;;22.98;4.00;;;;;;;;;;4978655;28;20061;-62
2022/07/07 02:14:41;;;;;;;30.15;4.30;;;;;;;;;;4976525;28;20047;-63
2022/07/07 02:17:08;;;;;;;19.45;3.38;;;;;;;;;;4982000;28;20055;-62
2022/07/07 02:19:35;;;;;;;23.80;3.65;;;;;;;;;;4981648;28;20104;-62
2022/07/07 02:22:02;;;;;;;22.73;3.55;;;;;;;;;;4982192;28;20101;-62
2022/07/07 02:24:29;;;;;;;23.02;3.95;;;;;;;;;;4986105;28;20050;-62
2022/07/07 02:26:57;;;;;;;19.40;3.33;;;;;;;;;;4982736;28;20489;-62
2022/07/07 02:29:24;;;;;;;22.02;3.25;;;;;;;;;;4981416;28;20049;-63
2022/07/07 02:31:52;;;;;;;18.67;3.38;;;;;;;;;;4982711;28;20042;-62
2022/07/07 02:34:20;;;;;;;23.05;3.15;;;;;;;;;;4982212;28;20096;-62
2022/07/07 02:36:48;;;;;;;21.45;3.55;;;;;;;;;;4977888;28;20409;-62
2022/07/07 02:39:15;;;;;;;27.23;4.13;;;;;;;;;;4963313;28;20062;-63
2022/07/07 02:41:42;;;;;;;28.17;3.78;;;;;;;;;;4964039;28;20124;-62
2022/07/07 02:44:09;;;;;;;20.65;3.13;;;;;;;;;;4962611;28;20113;-62
2022/07/07 02:46:36;;;;;;;23.95;3.25;;;;;;;;;;4967678;28;20078;-63
2022/07/07 02:49:05;;;;;;;15.15;2.78;;;;;;;;;;4960491;28;20059;-62
2022/07/07 02:51:32;;;;;;;16.27;2.25;;;;;;;;;;4963318;28;20445;-62
2022/07/07 02:54:00;;;;;;;15.88;2.60;;;;;;;;;;4964366;28;20413;-62
2022/07/07 02:56:27;;;;;;;18.25;2.17;;;;;;;;;;4967649;28;20050;-62
2022/07/07 02:58:54;;;;;;;13.70;1.92;;;;;;;;;;4964301;28;20137;-62
2022/07/07 03:01:21;;;;;;;9.20;1.95;;;;;;;;;;4966549;28;20047;-62
2022/07/07 03:03:48;;;;;;;15.75;2.42;;;;;;;;;;4961281;28;20113;-63
2022/07/07 03:06:17;;;;;;;15.15;2.17;;;;;;;;;;4963401;28;20058;-62
2022/07/07 03:08:44;;;;;;;15.85;2.35;;;;;;;;;;4967823;28;20057;-62
2022/07/07 03:11:12;;;;;;;15.93;2.42;;;;;;;;;;4971571;28;20055;-62
2022/07/07 03:13:39;;;;;;;16.88;2.47;;;;;;;;;;4968471;28;20681;-63
2022/07/07 03:16:06;;;;;;;18.75;2.15;;;;;;;;;;4965395;28;20051;-62
2022/07/07 03:18:33;;;;;;;16.08;2.22;;;;;;;;;;4966175;28;20070;-61
2022/07/07 03:21:01;;;;;;;9.88;1.27;;;;;;;;;;4965413;28;20054;-62
2022/07/07 03:23:29;;;;;;;9.35;1.60;;;;;;;;;;4965860;28;20046;-62
2022/07/07 03:25:56;;;;;;;14.48;1.73;;;;;;;;;;4967906;28;20560;-61
2022/07/07 03:28:24;;;;;;;14.80;2.00;;;;;;;;;;4948538;28;20058;-63
2022/07/07 03:30:51;;;;;;;9.73;1.58;;;;;;;;;;4966295;28;20054;-63
2022/07/07 03:33:18;;;;;;;14.13;1.75;;;;;;;;;;4975245;28;20098;-61
2022/07/07 03:35:45;;;;;;;11.15;1.27;;;;;;;;;;4971019;28;20050;-62
2022/07/07 03:38:12;;;;;;;13.95;1.80;;;;;;;;;;4976161;28;20042;-62
2022/07/07 03:40:41;;;;;;;10.50;1.90;;;;;;;;;;4967820;28;20061;-62
2022/07/07 03:43:08;;;;;;;9.73;1.48;;;;;;;;;;4983603;28;20058;-62
2022/07/07 03:45:35;;;;;;;9.50;1.08;;;;;;;;;;4984747;28;20120;-63
2022/07/07 03:48:03;;;;;;;10.30;1.05;;;;;;;;;;4984674;28;20563;-62
2022/07/07 03:50:30;;;;;;;3.55;0.50;;;;;;;;;;4984173;28;20050;-62
2022/07/07 03:52:58;;;;;;;8.27;0.93;;;;;;;;;;4985080;28;20042;-62
2022/07/07 03:55:25;;;;;;;8.48;0.90;;;;;;;;;;4984159;28;20744;-63
2022/07/07 03:57:54;;;;;;;6.35;0.90;;;;;;;;;;4984398;28;20089;-62
2022/07/07 04:00:21;;;;;;;9.77;1.25;;;;;;;;;;4986755;28;20050;-62
2022/07/07 04:02:48;;;;;;;10.23;1.27;;;;;;;;;;4984535;28;20050;-63
2022/07/07 04:05:15;;;;;;;11.15;1.25;;;;;;;;;;4984923;28;20050;-63
2022/07/07 04:07:42;;;;;;;11.68;1.63;;;;;;;;;;4971807;28;20058;-62
2022/07/07 04:10:10;;;;;;;11.68;1.90;;;;;;;;;;4967555;28;20148;-62
2022/07/07 04:12:37;;;;;;;20.63;2.28;;;;;;;;;;4982533;28;20105;-61
2022/07/07 04:15:06;;;;;;;17.60;2.53;;;;;;;;;;4985977;28;20046;-63
2022/07/07 04:17:33;;;;;;;18.27;2.60;;;;;;;;;;4982459;28;20054;-62
2022/07/07 04:20:01;;;;;;;22.55;3.55;;;;;;;;;;4982970;28;20050;-63
2022/07/07 04:22:28;;;;;;;23.45;3.40;;;;;;;;;;4984130;28;20125;-62
2022/07/07 04:24:55;;;;;;;17.98;3.35;;;;;;;;;;4967322;28;20079;-62
2022/07/07 04:27:22;;;;;;;15.90;2.85;;;;;;;;;;4982496;28;20049;-62
2022/07/07 04:29:50;;;;;;;20.85;3.38;;;;;;;;;;4982367;28;20054;-62
2022/07/07 04:32:18;;;;;;;29.90;3.92;;;;;;;;;;4978861;28;20507;-62
2022/07/07 04:34:45;;;;;;;23.52;3.00;;;;;;;;;;4984730;28;20042;-62
2022/07/07 04:37:13;;;;;;;18.17;2.95;;;;;;;;;;4969135;28;20054;-62
2022/07/07 04:39:40;;;;;;;21.33;2.83;;;;;;;;;;4965374;28;20101;-62
2022/07/07 04:42:07;;;;;;;17.08;2.20;;;;;;;;;;4964497;28;20116;-62
2022/07/07 04:44:34;;;;;;;17.50;2.38;;;;;;;;;;4964457;28;20046;-62
2022/07/07 04:47:01;;;;;;;11.30;2.05;;;;;;;;;;4965097;28;20058;-63
2022/07/07 04:49:30;;;;;;;14.32;3.03;;;;;;;;;;4964295;28;20417;-62
2022/07/07 04:51:57;;;;;;;18.40;2.80;;;;;;;;;;4943252;28;20058;-63
2022/07/07 04:54:25;;;;;;;20.98;3.10;;;;;;;;;;4962090;28;20699;-63
2022/07/07 04:56:52;;;;;;;23.67;2.85;;;;;;;;;;4961634;28;20055;-63
2022/07/07 04:59:19;;;;;;;20.60;2.80;;;;;;;;;;4967033;28;20042;-62
2022/07/07 05:01:46;;;;;;;19.92;2.63;;;;;;;;;;4947578;28;20686;-62
2022/07/07 05:04:13;;;;;;;21.48;2.75;;;;;;;;;;4961610;28;20139;-62
2022/07/07 05:06:42;;;;;;;21.48;2.38;;;;;;;;;;4966223;28;20529;-62
2022/07/07 05:09:10;;;;;;;14.68;2.50;;;;;;;;;;4957276;28;20055;-62
2022/07/07 05:11:37;;;;;;;18.58;2.47;;;;;;;;;;4959554;28;20133;-62
2022/07/07 05:14:04;;;;;;;14.98;2.22;;;;;;;;;;4962559;28;20058;-61
2022/07/07 05:16:32;;;;;;;15.18;2.22;;;;;;;;;;4961449;28;20764;-62
2022/07/07 05:18:59;;;;;;;17.33;2.60;;;;;;;;;;4946766;28;20464;-62
2022/07/07 05:21:26;;;;;;;8.95;1.40;;;;;;;;;;4954144;28;20051;-62
2022/07/07 05:23:54;;;;;;;9.20;1.90;;;;;;;;;;4967310;28;20046;-62
2022/07/07 05:26:22;;;;;;;14.20;1.83;;;;;;;;;;4965580;28;20058;-62
2022/07/07 05:28:49;;;;;;;14.70;1.63;;;;;;;;;;4960440;28;21507;-63
2022/07/07 05:31:16;;;;;;;11.57;2.20;;;;;;;;;;4959213;28;20055;-62
2022/07/07 05:33:44;;;;;;;12.45;2.03;;;;;;;;;;4957680;28;20054;-62
2022/07/07 05:36:11;;;;;;;10.55;1.70;;;;;;;;;;4962750;28;20064;-63
2022/07/07 05:38:38;;;;;;;11.93;1.63;;;;;;;;;;4979219;28;20054;-63
2022/07/07 05:41:07;;;;;;;14.20;2.17;;;;;;;;;;4979312;28;20101;-63
2022/07/07 05:43:34;;;;;;;15.48;1.95;;;;;;;;;;4979590;28;20042;-62
2022/07/07 05:46:02;;;;;;;14.82;1.85;;;;;;;;;;4979677;28;20593;-62
2022/07/07 05:48:29;;;;;;;12.93;1.80;;;;;;;;;;4979510;28;20054;-62
2022/07/07 05:50:56;;;;;;;15.68;2.05;;;;;;;;;;4980209;28;20634;-63
2022/07/07 05:53:23;;;;;;;14.05;1.52;;;;;;;;;;4978518;28;20042;-61
2022/07/07 05:55:51;;;;;;;8.60;1.45;;;;;;;;;;4979191;28;20128;-62
2022/07/07 05:58:19;;;;;;;6.28;1.08;;;;;;;;;;4978948;28;20046;-62
2022/07/07 06:00:47;;;;;;;10.98;1.15;;;;;;;;;;4980593;28;20046;-63
2022/07/07 06:03:14;;;;;;;9.57;1.50;;;;;;;;;;4960376;28;20085;-63
2022/07/07 06:05:41;;;;;;;8.02;1.23;;;;;;;;;;4982276;28;20054;-63
2022/07/07 06:08:09;;;;;;;10.57;1.70;;;;;;;;;;4978812;28;20157;-63
2022/07/07 06:10:36;;;;;;;9.75;1.40;;;;;;;;;;4979339;28;20153;-62
2022/07/07 06:13:03;;;;;;;10.13;1.42;;;;;;;;;;4977281;28;20054;-61
2022/07/07 06:15:33;;;;;;;13.25;1.60;;;;;;;;;;4979450;28;20046;-61
2022/07/07 06:18:01;;;;;;;8.00;1.50;;;;;;;;;;4978795;28;20120;-62
2022/07/07 06:20:28;;;;;;;8.90;1.40;;;;;;;;;;4978002;28;20423;-63
2022/07/07 06:22:55;;;;;;;8.18;1.42;;;;;;;;;;4977152;28;20050;-62
2022/07/07 06:25:22;;;;;;;6.95;1.67;;;;;;;;;;4980057;28;20046;-62
2022/07/07 06:27:50;;;;;;;11.32;1.50;;;;;;;;;;4978688;28;20046;-63
2022/07/07 06:30:17;;;;;;;13.73;2.00;;;;;;;;;;4979182;28;20690;-63
2022/07/07 06:32:46;;;;;;;10.68;1.80;;;;;;;;;;4976067;28;20112;-62
2022/07/07 06:35:14;;;;;;;10.43;1.60;;;;;;;;;;4960042;28;20110;-63
2022/07/07 06:37:41;;;;;;;10.60;2.13;;;;;;;;;;4977306;28;20109;-63
2022/07/07 06:40:09;;;;;;;11.85;1.95;;;;;;;;;;4976261;28;20871;-63
2022/07/07 06:42:36;;;;;;;15.77;1.90;;;;;;;;;;4980318;28;20058;-62
2022/07/07 06:45:04;;;;;;;14.80;2.13;;;;;;;;;;4961196;28;20051;-62
2022/07/07 06:47:32;;;;;;;10.75;1.83;;;;;;;;;;4977545;28;20053;-62
2022/07/07 06:50:00;;;;;;;13.25;2.58;;;;;;;;;;4978561;28;20598;-63
2022/07/07 06:52:28;;;;;;;12.93;2.45;;;;;;;;;;4978339;28;20100;-62
2022/07/07 06:54:55;;;;;;;13.80;2.50;;;;;;;;;;4959260;28;20101;-63
2022/07/07 06:57:22;;;;;;;8.38;1.58;;;;;;;;;;4982617;28;20082;-63
2022/07/07 06:59:50;;;;;;;9.52;1.35;;;;;;;;;;4966245;28;20381;-62
2022/07/07 07:02:17;;;;;;;8.93;1.60;;;;;;;;;;4982390;28;20129;-62
2022/07/07 07:04:44;;;;;;;12.45;1.67;;;;;;;;;;4980524;28;20104;-63
2022/07/07 07:07:13;;;;;;;8.85;1.95;;;;;;;;;;4982149;28;20061;-62
2022/07/07 07:09:40;;;;;;;9.57;1.45;;;;;;;;;;4980186;28;20074;-63
2022/07/07 07:12:08;;;;;;;10.80;1.83;;;;;;;;;;4982359;28;20050;-63
2022/07/07 07:14:35;;;;;;;7.03;1.20;;;;;;;;;;4964891;28;20136;-62
2022/07/07 07:17:02;;;;;;;4.18;0.95;;;;;;;;;;4983811;28;20133;-63
2022/07/07 07:19:30;;;;;;;6.40;1.08;;;;;;;;;;4983579;28;20564;-63
2022/07/07 07:21:57;;;;;;;7.78;1.20;;;;;;;;;;4983211;28;20065;-63
2022/07/07 07:24:25;;;;;;;6.07;1.17;;;;;;;;;;4984666;28;20046;-63
2022/07/07 07:26:53;;;;;;;7.00;1.50;;;;;;;;;;4985592;28;20058;-63
2022/07/07 07:29:20;;;;;;;8.63;1.83;;;;;;;;;;4964850;28;20054;-63
2022/07/07 07:31:47;;;;;;;12.52;1.95;;;;;;;;;;4981195;28;20762;-63
2022/07/07 07:34:14;;;;;;;16.42;2.40;;;;;;;;;;4982328;28;20058;-63
2022/07/07 07:36:41;;;;;;;16.23;2.17;;;;;;;;;;4962753;28;20058;-63
2022/07/07 07:39:09;;;;;;;14.13;2.08;;;;;;;;;;4984440;28;20656;-63
2022/07/07 07:41:37;;;;;;;15.05;2.25;;;;;;;;;;4980813;28;20053;-63
2022/07/07 07:44:04;;;;;;;13.18;2.33;;;;;;;;;;4985058;28;20054;-63
2022/07/07 07:46:32;;;;;;;13.32;2.38;;;;;;;;;;4979127;28;20042;-62
2022/07/07 07:49:00;;;;;;;12.93;2.20;;;;;;;;;;4983615;28;20104;-62
2022/07/07 07:51:27;;;;;;;11.18;2.53;;;;;;;;;;4986774;28;20108;-63
2022/07/07 07:53:54;;;;;;;14.07;1.60;;;;;;;;;;4984625;28;20720;-63
2022/07/07 07:56:21;;;;;;;9.50;1.42;;;;;;;;;;4963666;28;20108;-62
2022/07/07 07:58:50;;;;;;;12.50;2.03;;;;;;;;;;4982590;28;20061;-63
2022/07/07 08:01:17;;;;;;;12.43;1.80;;;;;;;;;;4981776;28;20222;-63
2022/07/07 08:03:45;;;;;;;13.95;2.08;;;;;;;;;;4983395;28;20046;-64
2022/07/07 08:06:12;;;;;;;13.82;2.63;;;;;;;;;;4981077;28;20553;-64
2022/07/07 08:08:39;;;;;;;10.05;1.90;;;;;;;;;;4983166;28;20062;-63
2022/07/07 08:11:06;;;;;;;10.57;2.10;;;;;;;;;;4983535;28;20051;-64
2022/07/07 08:13:34;;;;;;;10.90;1.92;;;;;;;;;;4978867;28;20046;-64
2022/07/07 08:16:02;;;;;;;14.45;1.80;;;;;;;;;;4981485;28;20053;-63
2022/07/07 08:18:30;;;;;;;15.02;1.80;;;;;;;;;;4983728;28;20160;-63
2022/07/07 08:20:57;;;;;;;15.20;2.30;;;;;;;;;;4982750;28;20512;-63
2022/07/07 08:23:24;;;;;;;14.68;2.70;;;;;;;;;;4983529;28;20041;-63
2022/07/07 08:25:51;;;;;;;8.52;1.73;;;;;;;;;;4980640;28;20081;-63
2022/07/07 08:28:19;;;;;;;13.13;2.70;;;;;;;;;;4981392;28;20081;-64
2022/07/07 08:30:46;;;;;;;11.30;1.60;;;;;;;;;;4983726;28;20050;-64
2022/07/07 08:33:15;;;;;;;15.57;1.70;;;;;;;;;;4983022;28;20050;-64
2022/07/07 08:35:42;;;;;;;11.68;1.60;;;;;;;;;;4976500;28;20438;-63
2022/07/07 08:38:09;;;;;;;8.13;1.20;;;;;;;;;;4961832;28;20047;-65
2022/07/07 08:40:37;;;;;;;9.52;1.58;;;;;;;;;;4960541;28;20676;-64
2022/07/07 08:43:04;;;;;;;8.05;1.27;;;;;;;;;;4961394;28;20088;-64
2022/07/07 08:45:32;;;;;;;4.05;1.00;;;;;;;;;;4960741;28;20047;-63
2022/07/07 08:47:59;;;;;;;5.43;1.20;;;;;;;;;;4961833;28;20058;-64
2022/07/07 08:50:28;;;;;;;8.07;1.20;;;;;;;;;;4962992;28;20059;-64
2022/07/07 08:52:55;;;;;;;11.65;1.17;;;;;;;;;;4961109;28;20106;-64
2022/07/07 08:55:24;;;;;;;10.05;1.67;;;;;;;;;;4959423;28;20050;-63
2022/07/07 08:57:52;;;;;;;12.57;2.03;;;;;;;;;;4960926;28;20039;-64
2022/07/07 09:00:19;;;;;;;7.25;1.27;;;;;;;;;;4960488;28;20047;-63
2022/07/07 09:02:46;;;;;;;8.57;1.10;;;;;;;;;;4961301;28;20050;-64
2022/07/07 09:05:13;;;;;;;3.25;0.90;;;;;;;;;;4962010;28;20063;-64
2022/07/07 09:07:50;;;;;;;3.25;0.52;;;;;;;;;;4961134;28;20141;-63
2022/07/07 09:10:31;;;;;;;3.17;0.80;;;;;;;;;;4958827;28;20707;-64
2022/07/07 09:12:58;;;;;;;5.68;1.00;;;;;;;;;;4959026;28;20046;-64
2022/07/07 09:15:25;;;;;;;5.38;0.95;;;;;;;;;;4961583;28;20047;-64
2022/07/07 09:17:53;;;;;;;6.45;1.38;;;;;;;;;;4963982;28;20054;-64
2022/07/07 09:20:20;;;;;;;8.05;1.27;;;;;;;;;;4958369;28;20097;-63
2022/07/07 09:22:50;;;;;;;10.15;1.63;;;;;;;;;;4960182;28;20050;-64
2022/07/07 09:25:18;;;;;;;12.85;1.52;;;;;;;;;;4964130;28;20059;-64
2022/07/07 09:27:56;;;;;;;14.45;2.10;;;;;;;;;;4964443;28;20065;-64
2022/07/07 09:30:27;;;;;;;15.23;1.95;;;;;;;;;;4961668;28;20586;-63
2022/07/07 09:32:54;;;;;;;15.85;2.05;;;;;;;;;;4962076;28;20050;-63
2022/07/07 09:38:17;;;;;;;16.10;2.67;;;;;;;;;;4956041;28;20050;-63
2022/07/07 09:40:54;;;;;;;17.65;2.67;;;;;;;;;;4958249;28;20138;-63
2022/07/07 09:43:22;;;;;;;12.88;2.70;;;;;;;;;;4958574;28;20493;-63
2022/07/07 09:45:49;;;;;;;24.40;3.05;;;;;;;;;;4960512;28;20050;-64
2022/07/07 09:48:16;;;;;;;18.25;3.15;;;;;;;;;;4941337;28;20104;-64
2022/07/07 09:50:44;;;;;;;21.00;3.40;;;;;;;;;;4960995;28;20125;-64
2022/07/07 09:53:12;;;;;;;14.90;3.05;;;;;;;;;;4958951;28;20058;-64
2022/07/07 09:55:41;;;;;;;17.30;2.55;;;;;;;;;;4957836;28;20059;-64
2022/07/07 09:58:08;;;;;;;17.77;3.13;;;;;;;;;;4959413;28;20065;-64
2022/07/07 10:00:35;;;;;;;16.65;3.50;;;;;;;;;;4958688;28;20051;-63
2022/07/07 10:03:02;;;;;;;13.98;2.58;;;;;;;;;;4941717;28;20054;-64
2022/07/07 10:05:30;;;;;;;14.10;2.28;;;;;;;;;;4958125;28;20189;-64
2022/07/07 10:07:57;;;;;;;13.07;2.22;;;;;;;;;;4954126;28;20047;-64
2022/07/07 10:10:27;;;;;;;13.93;2.40;;;;;;;;;;4957362;28;20050;-63
2022/07/07 10:12:55;;;;;;;16.95;2.60;;;;;;;;;;4959539;28;20110;-64
2022/07/07 10:15:23;;;;;;;19.50;3.22;;;;;;;;;;4959455;28;20043;-65
2022/07/07 10:17:50;;;;;;;25.27;3.88;;;;;;;;;;4959511;28;20058;-64
2022/07/07 10:20:18;;;;;;;21.05;3.70;;;;;;;;;;4956128;28;20062;-64
2022/07/07 10:22:45;;;;;;;16.70;3.38;;;;;;;;;;4959445;28;20109;-64
2022/07/07 10:25:13;;;;;;;19.35;3.75;;;;;;;;;;4959338;28;20051;-64
2022/07/07 10:27:42;;;;;;;21.17;3.95;;;;;;;;;;4960265;28;20061;-64
2022/07/07 10:30:10;;;;;;;15.10;2.72;;;;;;;;;;4958448;28;20074;-64
2022/07/07 10:32:40;;;;;;;18.92;2.38;;;;;;;;;;4957887;28;20453;-64
2022/07/07 10:35:08;;;;;;;14.65;2.13;;;;;;;;;;4940466;28;20059;-63
2022/07/07 10:37:42;;;;;;;13.68;1.67;;;;;;;;;;4973635;28;20126;-64
2022/07/07 10:40:12;;;;;;;14.98;2.45;;;;;;;;;;4978212;28;20054;-64
2022/07/07 10:43:00;;;;;;;14.60;2.40;;;;;;;;;;4975552;28;20067;-64
2022/07/07 10:45:29;;;;;;;17.38;2.83;;;;;;;;;;4982465;28;20046;-64
2022/07/07 10:47:56;;;;;;;12.95;2.33;;;;;;;;;;4976535;28;20077;-65
2022/07/07 10:50:31;;;;;;;13.25;2.42;;;;;;;;;;4980750;28;20073;-64
2022/07/07 10:52:59;;;;;;;15.07;2.70;;;;;;;;;;4966154;28;20885;-64
2022/07/07 10:55:45;;;;;;;14.63;2.70;;;;;;;;;;4979154;28;20386;-64
2022/07/07 10:58:12;;;;;;;16.65;2.70;;;;;;;;;;4978731;28;20449;-65
2022/07/07 11:00:41;;;;;;;14.25;2.90;;;;;;;;;;4981524;28;20058;-65
2022/07/07 11:03:13;;;;;;;14.00;2.55;;;;;;;;;;4981528;28;20870;-64
2022/07/07 11:05:45;;;;;;;12.27;3.03;;;;;;;;;;4981264;28;20058;-64
2022/07/07 11:08:16;;;;;;;13.23;2.80;;;;;;;;;;4979158;28;20408;-64
2022/07/07 11:10:47;;;;;;;11.35;2.30;;;;;;;;;;4981010;28;20105;-65
2022/07/07 11:13:16;;;;;;;10.65;1.95;;;;;;;;;;4984028;28;20060;-64
2022/07/07 11:15:45;;;;;;;12.00;2.58;;;;;;;;;;4982024;28;20682;-65
2022/07/07 11:18:13;;;;;;;15.40;2.17;;;;;;;;;;4980558;28;20472;-65
2022/07/07 11:20:55;;;;;;;13.07;2.67;;;;;;;;;;4981009;28;20050;-64
2022/07/07 11:23:22;;;;;;;10.18;2.20;;;;;;;;;;4978490;28;20050;-65
2022/07/07 11:25:51;;;;;;;8.88;2.22;;;;;;;;;;4979706;28;20058;-65
2022/07/07 11:28:19;;;;;;;16.35;2.97;;;;;;;;;;4965578;28;20584;-64
2022/07/07 11:30:47;;;;;;;11.77;2.40;;;;;;;;;;4980244;28;20046;-65
2022/07/07 11:33:14;;;;;;;16.98;2.85;;;;;;;;;;4980890;28;20785;-65
2022/07/07 11:35:42;;;;;;;13.25;2.65;;;;;;;;;;4982106;28;20042;-64
2022/07/07 11:38:11;;;;;;;14.18;2.72;;;;;;;;;;4978812;28;20053;-64
2022/07/07 11:40:39;;;;;;;16.92;3.25;;;;;;;;;;4966395;28;20082;-65
2022/07/07 11:43:06;;;;;;;16.50;3.30;;;;;;;;;;4967609;28;20053;-64
2022/07/07 11:45:34;;;;;;;14.77;2.80;;;;;;;;;;4966012;28;20057;-65
2022/07/07 11:48:04;;;;;;;16.17;2.25;;;;;;;;;;4984568;28;20667;-64
2022/07/07 11:50:32;;;;;;;13.73;2.85;;;;;;;;;;4985695;28;20678;-63
2022/07/07 11:53:01;;;;;;;18.80;3.58;;;;;;;;;;4975971;28;20210;-64
2022/07/07 11:55:28;;;;;;;13.40;3.42;;;;;;;;;;4984555;28;20050;-64
2022/07/07 11:57:57;;;;;;;15.50;3.42;;;;;;;;;;4986808;28;20046;-63
2022/07/07 12:00:25;;;;;;;20.80;4.00;;;;;;;;;;4985585;28;20085;-64
2022/07/07 12:02:53;;;;;;;19.02;3.72;;;;;;;;;;4986786;28;20070;-65
2022/07/07 12:05:22;;;;;;;12.93;3.42;;;;;;;;;;4984364;28;20062;-64
2022/07/07 12:07:56;;;;;;;19.27;3.08;;;;;;;;;;4986689;28;20064;-64
2022/07/07 12:10:24;;;;;;;17.50;2.92;;;;;;;;;;4985312;28;20100;-65
2022/07/07 12:12:55;;;;;;;18.58;2.80;;;;;;;;;;4970341;28;20046;-64
2022/07/07 12:15:23;;;;;;;12.50;2.50;;;;;;;;;;4963152;28;20046;-64
2022/07/07 12:17:50;;;;;;;11.05;2.40;;;;;;;;;;4983187;28;20042;-64
2022/07/07 12:20:17;;;;;;;18.52;2.80;;;;;;;;;;4989112;28;20037;-64
2022/07/07 12:22:51;;;;;;;16.02;2.95;;;;;;;;;;4985490;28;20101;-64
2022/07/07 12:25:19;;;;;;;14.02;3.08;;;;;;;;;;4982456;28;20583;-63
2022/07/07 12:27:56;;;;;;;14.48;2.92;;;;;;;;;;4973992;28;20055;-64
2022/07/07 12:30:24;;;;;;;18.25;3.15;;;;;;;;;;4969895;28;20118;-64
2022/07/07 12:32:51;;;;;;;14.60;3.00;;;;;;;;;;4984473;28;20537;-64
2022/07/07 12:35:31;;;;;;;16.88;2.80;;;;;;;;;;4985487;28;20050;-64
2022/07/07 12:38:01;;;;;;;12.27;2.22;;;;;;;;;;4984975;28;20059;-64
2022/07/07 12:40:29;;;;;;;10.35;2.67;;;;;;;;;;4984213;28;20426;-64
2022/07/07 12:42:56;;;;;;;11.45;2.35;;;;;;;;;;4983938;28;20050;-64
2022/07/07 12:45:24;;;;;;;12.52;2.20;;;;;;;;;;4988288;28;20058;-64
2022/07/07 12:47:52;;;;;;;8.70;1.90;;;;;;;;;;4983385;28;20579;-64
2022/07/07 12:50:20;;;;;;;15.55;2.53;;;;;;;;;;4977418;28;20066;-64
2022/07/07 12:52:57;;;;;;;7.45;1.77;;;;;;;;;;4975444;28;20501;-64
2022/07/07 12:55:32;;;;;;;9.52;1.77;;;;;;;;;;4982683;28;20050;-64
2022/07/07 12:58:03;;;;;;;11.20;2.40;;;;;;;;;;4978443;28;20105;-64
2022/07/07 13:00:30;;;;;;;15.77;2.58;;;;;;;;;;4979755;28;20046;-64
2022/07/07 13:02:57;;;;;;;15.20;2.78;;;;;;;;;;4980638;28;20054;-64
2022/07/07 13:05:25;;;;;;;12.80;2.78;;;;;;;;;;4987376;28;20448;-64
2022/07/07 13:07:52;;;;;;;13.45;2.78;;;;;;;;;;4976741;28;20047;-64
2022/07/07 13:10:19;;;;;;;9.73;2.25;;;;;;;;;;4983406;28;20080;-64
2022/07/07 13:12:48;;;;;;;13.05;2.38;;;;;;;;;;4974709;28;20469;-64
2022/07/07 13:15:16;;;;;;;15.73;3.33;;;;;;;;;;4975806;28;20112;-63
2022/07/07 13:17:44;;;;;;;13.77;2.35;;;;;;;;;;4986760;28;20115;-64
2022/07/07 13:20:12;;;;;;;16.17;3.08;;;;;;;;;;4978707;28;20057;-64
2022/07/07 13:22:39;;;;;;;9.00;2.50;;;;;;;;;;4983116;28;20046;-65
2022/07/07 13:25:07;;;;;;;6.35;1.77;;;;;;;;;;4983583;28;20088;-64
2022/07/07 13:27:34;;;;;;;10.52;1.50;;;;;;;;;;4986608;28;20046;-64
2022/07/07 13:30:03;;;;;;;9.60;1.75;;;;;;;;;;4982096;28;20046;-64
2022/07/07 13:32:30;;;;;;;7.28;1.70;;;;;;;;;;4986068;28;20701;-63
2022/07/07 13:34:57;;;;;;;13.18;1.90;;;;;;;;;;4986709;28;20053;-64
2022/07/07 13:37:24;;;;;;;11.75;2.00;;;;;;;;;;4979075;28;20129;-64
2022/07/07 13:39:52;;;;;;;8.68;2.20;;;;;;;;;;4981627;28;20485;-64
2022/07/07 13:42:19;;;;;;;9.43;2.28;;;;;;;;;;4984305;28;20046;-64
2022/07/07 13:44:46;;;;;;;12.98;2.03;;;;;;;;;;4973606;28;20047;-63
2022/07/07 13:47:15;;;;;;;10.40;2.08;;;;;;;;;;4969111;28;20049;-63
2022/07/07 13:49:42;;;;;;;9.77;2.03;;;;;;;;;;4975144;28;20566;-64
2022/07/07 13:52:10;;;;;;;15.38;2.92;;;;;;;;;;4979360;28;20835;-64
2022/07/07 13:54:37;;;;;;;13.75;2.67;;;;;;;;;;4977778;28;20045;-64
2022/07/07 13:57:05;;;;;;;13.40;2.40;;;;;;;;;;4975287;28;20054;-64
2022/07/07 13:59:32;;;;;;;16.90;3.17;;;;;;;;;;4986228;28;20072;-64
2022/07/07 14:01:59;;;;;;;11.50;2.58;;;;;;;;;;4993854;28;20109;-63
2022/07/07 14:04:28;;;;;;;18.08;3.03;;;;;;;;;;4984162;28;20058;-64
2022/07/07 14:06:55;;;;;;;16.23;2.25;;;;;;;;;;4987045;28;20046;-64
2022/07/07 14:09:22;;;;;;;13.23;2.22;;;;;;;;;;4981853;28;20050;-63
2022/07/07 14:11:49;;;;;;;12.52;2.30;;;;;;;;;;4983069;28;20045;-63
2022/07/07 14:14:17;;;;;;;10.45;2.03;;;;;;;;;;4984500;28;20057;-64
2022/07/07 14:16:44;;;;;;;11.80;2.30;;;;;;;;;;4982378;28;20042;-63
2022/07/07 14:19:12;;;;;;;11.50;2.47;;;;;;;;;;4974886;28;20054;-63
2022/07/07 14:21:42;;;;;;;11.73;2.38;;;;;;;;;;4983351;28;20468;-64
2022/07/07 14:24:09;;;;;;;8.32;2.28;;;;;;;;;;4988134;28;20054;-63
2022/07/07 14:26:36;;;;;;;11.85;2.30;;;;;;;;;;4981810;28;20664;-63
2022/07/07 14:29:04;;;;;;;9.40;1.80;;;;;;;;;;4982455;28;20046;-63
2022/07/07 14:31:33;;;;;;;8.30;2.00;;;;;;;;;;4979450;28;20066;-63
2022/07/07 14:34:00;;;;;;;9.90;2.05;;;;;;;;;;4984547;28;20054;-63
2022/07/07 14:36:27;;;;;;;13.95;1.90;;;;;;;;;;4980368;28;20516;-63
2022/07/07 14:38:56;;;;;;;10.45;2.33;;;;;;;;;;4980715;28;20053;-63
2022/07/07 14:41:23;;;;;;;8.90;1.95;;;;;;;;;;4982666;28;20366;-64